AK00 weather

Anchor River Airpark
Anchor Point, Alaska, United States

Public forecast

Using degrees Fahrenheit for public forecast. Weather courtesy of forecast.io.

METAR (pilot weather report)

Closest report is Homer Airport, 14.8 nm (27.4 km) SE. Retrieved 2019/07/23 16:53 UTC (34 minutes ago):

PAHO 231653Z 07003KT 10SM CLR 14/11 A2994 RMK AO2 SLP138 T01440111

TAF (pilot weather forecast)

Closest forecast is Homer Airport, 14.8 nm (27.4 km) SE. Retrieved 2019/07/23 12:51 UTC (5 hours ago):

TAF PAHO 231151Z 2312/2412 24008KT P6SM SCT050 BKN100 FM232100 25012KT P6SM VCSH BKN080 FM240400 23007KT P6SM -RA BKN050